createdAt,value
2023-04-09T00:00:41.965Z,27.30
2023-04-09T00:03:15.101Z,29.83
2023-04-09T00:05:44.904Z,29.67
2023-04-09T00:08:14.509Z,30.90
2023-04-09T00:10:44.138Z,28.67
2023-04-09T00:13:14.341Z,30.70
2023-04-09T00:15:44.728Z,28.23
2023-04-09T00:18:17.689Z,39.03
2023-04-09T00:20:47.537Z,31.63
2023-04-09T00:23:17.269Z,32.53
2023-04-09T00:25:46.945Z,29.38
2023-04-09T00:28:16.901Z,30.55
2023-04-09T00:30:46.658Z,29.80
2023-04-09T00:33:18.925Z,26.48
2023-04-09T00:35:48.614Z,32.22
2023-04-09T00:38:18.310Z,31.42
2023-04-09T00:40:51.840Z,27.60
2023-04-09T00:43:21.740Z,27.40
2023-04-09T00:45:51.464Z,33.83
2023-04-09T00:48:23.963Z,29.90
2023-04-09T00:50:53.886Z,34.58
2023-04-09T00:53:23.685Z,29.95
2023-04-09T00:55:53.381Z,31.15
2023-04-09T00:58:23.032Z,29.67
2023-04-09T01:00:52.787Z,37.85
2023-04-09T01:03:25.178Z,32.25
2023-04-09T01:06:03.205Z,32.13
2023-04-09T01:08:40.527Z,34.65
2023-04-09T01:11:17.542Z,31.85
2023-04-09T01:13:55.606Z,34.72
2023-04-09T01:16:27.442Z,30.90
2023-04-09T01:19:02.959Z,30.63
2023-04-09T01:21:35.212Z,33.10
2023-04-09T01:24:21.777Z,31.25
2023-04-09T01:27:01.749Z,29.23
2023-04-09T01:29:46.610Z,28.80
2023-04-09T01:32:19.385Z,29.27
2023-04-09T01:34:51.037Z,35.03
2023-04-09T01:37:21.903Z,29.48
2023-04-09T01:39:51.838Z,31.50
2023-04-09T01:42:22.265Z,28.27
2023-04-09T01:44:55.590Z,34.00
2023-04-09T01:47:26.114Z,36.60
2023-04-09T01:49:55.893Z,28.75
2023-04-09T01:52:25.725Z,28.67
2023-04-09T01:54:55.569Z,33.75
2023-04-09T01:57:25.183Z,29.65
2023-04-09T01:59:57.790Z,29.70
2023-04-09T02:02:38.240Z,27.08
2023-04-09T02:05:12.004Z,30.60
2023-04-09T02:07:46.306Z,28.80
2023-04-09T02:10:17.574Z,27.38
2023-04-09T02:12:53.911Z,29.98
2023-04-09T02:15:27.297Z,28.73
2023-04-09T02:17:57.087Z,30.48
2023-04-09T02:20:26.947Z,33.63
2023-04-09T02:22:56.609Z,31.33
2023-04-09T02:25:26.510Z,30.08
2023-04-09T02:27:56.162Z,31.80
2023-04-09T02:30:28.668Z,29.33
2023-04-09T02:32:59.964Z,30.25
2023-04-09T02:35:29.629Z,35.03
2023-04-09T02:37:59.750Z,32.42
2023-04-09T02:40:29.672Z,39.55
2023-04-09T02:42:59.917Z,31.48
2023-04-09T02:45:32.107Z,33.60
2023-04-09T02:48:02.215Z,33.38
2023-04-09T02:50:35.444Z,34.20
2023-04-09T02:53:05.796Z,35.72
2023-04-09T02:55:35.545Z,31.00
2023-04-09T02:58:05.358Z,29.90
2023-04-09T03:00:37.763Z,32.85
2023-04-09T03:03:07.829Z,31.58
2023-04-09T03:05:38.215Z,33.13
2023-04-09T03:08:08.734Z,33.58
2023-04-09T03:10:38.473Z,35.10
2023-04-09T03:13:08.145Z,32.78
2023-04-09T03:15:40.486Z,32.90
2023-04-09T03:18:10.412Z,33.78
2023-04-09T03:20:40.857Z,37.50
2023-04-09T03:23:13.773Z,29.55
2023-04-09T03:25:47.754Z,32.38
2023-04-09T03:28:19.941Z,34.55
2023-04-09T03:30:56.519Z,39.10
2023-04-09T03:33:27.079Z,37.13
2023-04-09T03:35:58.934Z,34.72
2023-04-09T03:38:38.695Z,39.90
2023-04-09T03:41:14.095Z,36.08
2023-04-09T03:43:43.905Z,37.35
2023-04-09T03:46:19.351Z,37.92
2023-04-09T03:48:51.205Z,24.77
2023-04-09T03:51:21.906Z,38.65
2023-04-09T03:56:27.150Z,41.22
2023-04-09T03:58:56.794Z,36.25
2023-04-09T04:01:38.429Z,42.25
2023-04-09T04:04:08.503Z,45.90
2023-04-09T04:06:48.139Z,46.42
2023-04-09T04:09:33.082Z,41.25
2023-04-09T04:12:07.954Z,47.65
2023-04-09T04:14:51.913Z,47.60
2023-04-09T04:17:31.218Z,52.72
2023-04-09T04:20:01.803Z,57.00
2023-04-09T04:22:36.757Z,45.00
2023-04-09T04:25:08.336Z,46.20
2023-04-09T04:27:38.359Z,50.55
2023-04-09T04:30:13.482Z,47.70
2023-04-09T04:33:01.137Z,56.95
2023-04-09T04:35:34.982Z,63.20
2023-04-09T04:38:07.077Z,82.68
2023-04-09T04:40:40.284Z,59.25
2023-04-09T04:43:10.428Z,50.38
2023-04-09T04:45:40.226Z,69.10
2023-04-09T04:48:16.703Z,59.05
2023-04-09T04:50:48.689Z,89.78
2023-04-09T04:53:18.891Z,116.68
2023-04-09T04:55:52.867Z,151.48
2023-04-09T04:58:27.923Z,114.45
2023-04-09T05:01:01.127Z,114.35
2023-04-09T05:03:34.214Z,167.80
2023-04-09T05:06:23.018Z,79.40
2023-04-09T05:08:52.927Z,84.10
2023-04-09T05:11:22.873Z,89.63
2023-04-09T05:13:52.566Z,80.90
2023-04-09T05:16:23.820Z,104.82
2023-04-09T05:19:04.591Z,49.95
2023-04-09T05:21:34.541Z,76.53
2023-04-09T05:24:05.514Z,52.90
2023-04-09T05:26:36.798Z,64.38
2023-04-09T05:29:06.781Z,58.38
2023-04-09T05:31:37.709Z,59.80
2023-04-09T05:34:14.003Z,57.87
2023-04-09T05:36:52.007Z,60.53
2023-04-09T05:39:24.281Z,50.70
2023-04-09T05:41:55.077Z,46.70
2023-04-09T05:44:27.554Z,47.92
2023-04-09T05:47:07.389Z,54.38
2023-04-09T05:49:48.521Z,52.53
2023-04-09T05:52:21.618Z,55.72
2023-04-09T05:54:53.403Z,51.95
2023-04-09T05:57:30.636Z,45.00
2023-04-09T06:00:04.102Z,46.85
2023-04-09T06:02:46.672Z,45.42
2023-04-09T06:05:19.400Z,39.03
2023-04-09T06:07:51.020Z,40.72
2023-04-09T06:10:21.801Z,42.90
2023-04-09T06:12:51.915Z,38.85
2023-04-09T06:15:21.882Z,44.08
2023-04-09T06:17:51.633Z,37.92
2023-04-09T06:20:24.009Z,39.42
2023-04-09T06:22:53.954Z,35.85
2023-04-09T06:25:23.717Z,37.78
2023-04-09T06:27:53.404Z,39.63
2023-04-09T06:30:23.138Z,43.63
2023-04-09T06:32:55.395Z,39.88
2023-04-09T06:35:27.854Z,35.65
2023-04-09T06:37:57.611Z,34.63
2023-04-09T06:40:27.325Z,40.38
2023-04-09T06:42:57.041Z,39.03
2023-04-09T06:45:32.779Z,40.58
2023-04-09T06:48:02.857Z,38.08
2023-04-09T06:50:35.183Z,38.33
2023-04-09T06:53:05.262Z,41.60
2023-04-09T06:55:34.975Z,37.83
2023-04-09T06:58:04.839Z,42.20
2023-04-09T07:00:34.555Z,44.20
2023-04-09T07:03:05.011Z,44.65
2023-04-09T07:05:37.939Z,41.22
2023-04-09T07:08:08.245Z,41.42
2023-04-09T07:10:37.977Z,41.05
2023-04-09T07:13:07.655Z,46.05
2023-04-09T07:15:38.042Z,44.58
2023-04-09T07:18:09.376Z,47.08
2023-04-09T07:20:41.807Z,44.08
2023-04-09T07:23:11.867Z,45.58
2023-04-09T07:25:41.510Z,48.92
2023-04-09T07:28:11.710Z,50.53
2023-04-09T07:30:42.307Z,47.05
2023-04-09T07:33:11.999Z,44.72
2023-04-09T07:35:44.338Z,44.63
2023-04-09T07:38:14.011Z,48.45
2023-04-09T07:40:43.736Z,46.15
2023-04-09T07:43:13.513Z,42.72
2023-04-09T07:45:44.715Z,40.75
2023-04-09T07:48:14.434Z,44.65
2023-04-09T07:50:48.385Z,34.67
2023-04-09T07:53:18.084Z,37.15
2023-04-09T07:55:47.748Z,44.80
2023-04-09T07:58:18.623Z,42.75
2023-04-09T08:00:48.829Z,43.70
2023-04-09T08:03:19.587Z,43.17
2023-04-09T08:05:52.537Z,39.22
2023-04-09T08:08:22.683Z,44.28
2023-04-09T08:10:52.327Z,37.33
2023-04-09T08:13:22.066Z,42.22
2023-04-09T08:15:51.868Z,40.28
2023-04-09T08:18:21.585Z,39.40
2023-04-09T08:20:53.809Z,38.55
2023-04-09T08:23:23.449Z,44.08
2023-04-09T08:25:53.350Z,41.75
2023-04-09T08:28:23.396Z,41.45
2023-04-09T08:30:53.182Z,39.33
2023-04-09T08:33:22.969Z,46.67
2023-04-09T08:35:55.324Z,40.35
2023-04-09T08:38:25.143Z,38.55
2023-04-09T08:40:54.817Z,36.15
2023-04-09T08:43:41.900Z,36.83
2023-04-09T08:46:18.339Z,37.55
2023-04-09T08:48:49.371Z,37.45
2023-04-09T08:51:23.324Z,40.28
2023-04-09T08:53:58.342Z,35.42
2023-04-09T08:56:29.052Z,25.50
2023-04-09T08:58:59.379Z,37.40
2023-04-09T09:01:31.121Z,39.97
2023-04-09T09:04:04.449Z,33.30
2023-04-09T09:06:38.756Z,35.22
2023-04-09T09:09:10.031Z,40.03
2023-04-09T09:11:41.738Z,35.05
2023-04-09T09:14:12.908Z,39.88
2023-04-09T09:16:45.010Z,31.17
2023-04-09T09:19:33.776Z,33.30
2023-04-09T09:22:08.138Z,31.08
2023-04-09T09:24:50.364Z,30.13
2023-04-09T09:27:37.161Z,30.88
2023-04-09T09:30:08.752Z,30.17
2023-04-09T09:32:39.373Z,32.75
2023-04-09T09:35:10.670Z,31.05
2023-04-09T09:37:42.929Z,31.55
2023-04-09T09:40:14.297Z,29.20
2023-04-09T09:42:58.049Z,26.80
2023-04-09T09:45:28.287Z,30.20
2023-04-09T09:47:58.095Z,27.90
2023-04-09T09:50:28.907Z,32.05
2023-04-09T09:53:05.484Z,27.90
2023-04-09T09:55:36.020Z,28.73
2023-04-09T09:58:12.274Z,29.67
2023-04-09T10:00:43.315Z,32.45
2023-04-09T10:03:18.413Z,20.95
2023-04-09T10:05:48.680Z,20.27
2023-04-09T10:08:21.173Z,21.00
2023-04-09T10:10:51.870Z,22.83
2023-04-09T10:13:24.504Z,21.00
2023-04-09T10:15:54.836Z,21.27
2023-04-09T10:18:24.545Z,21.17
2023-04-09T10:21:01.452Z,22.20
2023-04-09T10:23:41.537Z,22.70
2023-04-09T10:26:11.562Z,21.35
2023-04-09T10:28:41.501Z,25.80
2023-04-09T10:31:11.737Z,23.13
2023-04-09T10:33:42.134Z,20.63
2023-04-09T10:36:15.010Z,23.52
2023-04-09T10:38:51.109Z,23.42
2023-04-09T10:41:27.795Z,23.20
2023-04-09T10:43:57.493Z,23.90
2023-04-09T10:46:31.661Z,19.40
2023-04-09T10:49:12.290Z,23.98
2023-04-09T10:51:45.276Z,24.27
2023-04-09T10:54:44.038Z,23.23
2023-04-09T10:57:18.604Z,21.50
2023-04-09T10:59:50.047Z,24.42
2023-04-09T11:02:49.797Z,23.88
2023-04-09T11:05:38.819Z,26.27
2023-04-09T11:08:11.070Z,21.10
2023-04-09T11:10:46.408Z,22.00
2023-04-09T11:13:17.225Z,22.20
2023-04-09T11:15:48.012Z,23.33
2023-04-09T11:18:18.119Z,22.15
2023-04-09T11:20:48.731Z,20.95
2023-04-09T11:23:20.167Z,19.17
2023-04-09T11:25:55.360Z,21.45
2023-04-09T11:28:26.674Z,24.35
2023-04-09T11:30:56.607Z,23.40
2023-04-09T11:33:26.579Z,25.70
2023-04-09T11:35:56.352Z,23.27
2023-04-09T11:38:26.427Z,26.98
2023-04-09T11:41:01.467Z,24.15
2023-04-09T11:43:31.163Z,21.53
2023-04-09T11:46:02.271Z,22.50
2023-04-09T11:48:33.390Z,28.35
2023-04-09T11:51:04.174Z,27.55
2023-04-09T11:53:34.440Z,25.08
2023-04-09T11:56:07.338Z,26.20
2023-04-09T11:58:37.998Z,22.75
2023-04-09T12:01:07.800Z,26.00
2023-04-09T12:03:38.030Z,27.40
2023-04-09T12:06:09.416Z,22.13
2023-04-09T12:08:39.943Z,24.70
2023-04-09T12:11:19.056Z,21.38
2023-04-09T12:13:48.937Z,24.35
2023-04-09T12:16:22.492Z,27.77
2023-04-09T12:18:55.955Z,25.35
2023-04-09T12:21:27.838Z,24.05
2023-04-09T12:23:57.588Z,30.60
2023-04-09T12:26:29.922Z,26.20
2023-04-09T12:28:59.660Z,25.63
2023-04-09T12:31:29.576Z,26.33
2023-04-09T12:33:59.265Z,26.83
2023-04-09T12:36:30.074Z,23.27
2023-04-09T12:38:59.754Z,21.48
2023-04-09T12:41:32.562Z,23.52
2023-04-09T12:44:02.209Z,24.85
2023-04-09T12:46:32.777Z,30.75
2023-04-09T12:49:02.542Z,23.38
2023-04-09T12:51:32.950Z,24.33
2023-04-09T12:54:04.225Z,23.98
2023-04-09T12:56:36.617Z,23.48
2023-04-09T12:59:06.917Z,19.58
2023-04-09T13:01:36.762Z,23.48
2023-04-09T13:04:06.784Z,25.52
2023-04-09T13:06:36.752Z,22.38
2023-04-09T13:09:06.671Z,26.05
2023-04-09T13:11:38.985Z,24.80
2023-04-09T13:14:13.576Z,22.23
2023-04-09T13:16:43.661Z,24.48
2023-04-09T13:19:13.599Z,20.30
2023-04-09T13:21:43.313Z,21.67
2023-04-09T13:24:13.137Z,20.50
2023-04-09T13:26:45.683Z,19.38
2023-04-09T13:29:15.693Z,22.67
2023-04-09T13:31:45.312Z,18.63
2023-04-09T13:34:14.984Z,20.10
2023-04-09T13:36:44.666Z,22.20
2023-04-09T13:39:14.363Z,18.13
2023-04-09T13:41:46.808Z,24.63
2023-04-09T13:44:16.480Z,21.23
2023-04-09T13:46:46.409Z,18.42
2023-04-09T13:49:16.661Z,17.60
2023-04-09T13:51:46.412Z,18.95
2023-04-09T13:54:16.262Z,19.08
2023-04-09T13:56:50.176Z,18.42
2023-04-09T13:59:19.862Z,19.17
2023-04-09T14:01:49.732Z,18.75
2023-04-09T14:04:19.784Z,17.33
2023-04-09T14:06:49.493Z,17.25
2023-04-09T14:09:19.194Z,16.52
2023-04-09T14:11:51.538Z,20.17
2023-04-09T14:14:21.330Z,19.52
2023-04-09T14:16:51.117Z,20.35
2023-04-09T14:19:20.792Z,18.02
2023-04-09T14:21:53.339Z,18.23
2023-04-09T14:24:23.423Z,17.15
2023-04-09T14:26:57.010Z,19.00
2023-04-09T14:29:26.646Z,20.83
2023-04-09T14:31:57.349Z,19.08
2023-04-09T14:34:27.055Z,18.77
2023-04-09T14:36:56.717Z,18.50
2023-04-09T14:39:26.382Z,16.30
2023-04-09T14:41:58.651Z,20.13
2023-04-09T14:44:28.409Z,22.17
2023-04-09T14:47:00.113Z,17.60
2023-04-09T14:49:29.851Z,17.15
2023-04-09T14:51:59.536Z,19.98
2023-04-09T14:54:30.577Z,17.52
2023-04-09T14:57:03.050Z,17.30
2023-04-09T14:59:32.692Z,22.27
2023-04-09T15:02:03.110Z,16.00
2023-04-09T15:04:33.057Z,17.35
2023-04-09T15:07:02.783Z,17.10
2023-04-09T15:09:32.421Z,20.10
2023-04-09T15:12:04.700Z,18.38
2023-04-09T15:14:34.530Z,22.70
2023-04-09T15:17:04.180Z,20.42
2023-04-09T15:19:33.885Z,19.63
2023-04-09T15:22:03.509Z,16.80
2023-04-09T15:24:34.122Z,19.38
2023-04-09T15:27:06.589Z,17.83
2023-04-09T15:29:36.397Z,17.75
2023-04-09T15:32:06.191Z,19.70
2023-04-09T15:34:35.898Z,19.67
2023-04-09T15:37:05.754Z,19.90
2023-04-09T15:39:35.495Z,21.00
2023-04-09T15:42:10.317Z,18.60
2023-04-09T15:44:41.591Z,18.05
2023-04-09T15:47:11.259Z,18.02
2023-04-09T15:49:40.896Z,18.48
2023-04-09T15:52:10.647Z,18.92
2023-04-09T15:54:40.346Z,19.48
2023-04-09T15:57:12.641Z,22.80
2023-04-09T15:59:42.297Z,19.48
2023-04-09T16:02:12.036Z,22.13
2023-04-09T16:04:41.824Z,19.65
2023-04-09T16:07:11.603Z,24.70
2023-04-09T16:09:41.671Z,18.02
2023-04-09T16:12:13.918Z,17.33
2023-04-09T16:14:43.776Z,20.60
2023-04-09T16:17:13.416Z,19.00
2023-04-09T16:19:44.738Z,20.63
2023-04-09T16:22:14.388Z,24.17
2023-04-09T16:24:44.104Z,24.63
2023-04-09T16:27:16.878Z,20.90
2023-04-09T16:29:46.884Z,18.98
2023-04-09T16:32:16.641Z,20.40
2023-04-09T16:34:47.470Z,21.58
2023-04-09T16:37:17.117Z,20.08
2023-04-09T16:39:46.881Z,20.95
2023-04-09T16:42:19.129Z,22.08
2023-04-09T16:44:48.827Z,21.55
2023-04-09T16:47:18.572Z,20.77
2023-04-09T16:49:48.217Z,21.58
2023-04-09T16:52:17.962Z,19.55
2023-04-09T16:54:47.607Z,21.05
2023-04-09T16:57:19.834Z,19.77
2023-04-09T16:59:49.481Z,19.52
2023-04-09T17:02:21.914Z,20.10
2023-04-09T17:04:51.780Z,19.92
2023-04-09T17:07:22.040Z,18.73
2023-04-09T17:09:52.199Z,18.27
2023-04-09T17:12:24.765Z,16.92
2023-04-09T17:14:54.706Z,19.38
2023-04-09T17:17:24.386Z,17.15
2023-04-09T17:19:54.231Z,21.40
2023-04-09T17:22:23.972Z,20.73
2023-04-09T17:24:53.981Z,20.30
2023-04-09T17:27:26.285Z,20.08
2023-04-09T17:29:56.563Z,17.50
2023-04-09T17:32:26.330Z,17.30
2023-04-09T17:34:56.119Z,20.15
2023-04-09T17:37:25.748Z,19.80
2023-04-09T17:39:55.599Z,20.73
2023-04-09T17:42:27.836Z,30.95
2023-04-09T17:44:57.484Z,29.73
2023-04-09T17:47:27.433Z,25.60
2023-04-09T17:49:57.134Z,27.52
2023-04-09T17:52:26.965Z,20.60
2023-04-09T17:54:56.830Z,20.55
2023-04-09T17:57:29.158Z,20.98
2023-04-09T17:59:58.824Z,21.45
2023-04-09T18:02:31.648Z,18.63
2023-04-09T18:05:02.153Z,18.30
2023-04-09T18:07:34.084Z,19.67
2023-04-09T18:10:04.076Z,18.38
2023-04-09T18:12:36.344Z,20.52
2023-04-09T18:15:06.444Z,23.08
2023-04-09T18:17:36.183Z,17.10
2023-04-09T18:20:06.716Z,18.42
2023-04-09T18:22:36.520Z,17.42
2023-04-09T18:25:07.174Z,17.88
2023-04-09T18:27:39.726Z,16.83
2023-04-09T18:30:10.773Z,17.60
2023-04-09T18:32:40.489Z,19.48
2023-04-09T18:35:11.213Z,24.10
2023-04-09T18:37:41.119Z,23.75
2023-04-09T18:40:16.069Z,20.58
2023-04-09T18:42:52.738Z,16.43
2023-04-09T18:45:22.638Z,25.85
2023-04-09T18:47:52.377Z,24.92
2023-04-09T18:50:22.137Z,18.60
2023-04-09T18:52:51.808Z,22.13
2023-04-09T18:55:21.528Z,21.65
2023-04-09T18:57:54.431Z,20.80
2023-04-09T19:00:24.250Z,31.75
2023-04-09T19:02:54.190Z,25.58
2023-04-09T19:05:24.050Z,20.17
2023-04-09T19:07:53.771Z,23.08
2023-04-09T19:10:23.437Z,20.52
2023-04-09T19:12:56.079Z,20.50
2023-04-09T19:15:26.875Z,20.70
2023-04-09T19:17:56.798Z,20.73
2023-04-09T19:20:26.582Z,21.73
2023-04-09T19:22:57.607Z,22.30
2023-04-09T19:25:27.386Z,20.45
2023-04-09T19:27:59.832Z,24.75
2023-04-09T19:30:29.765Z,19.75
2023-04-09T19:32:59.633Z,20.90
2023-04-09T19:35:29.454Z,21.45
2023-04-09T19:37:59.310Z,26.17
2023-04-09T19:40:29.122Z,23.80
2023-04-09T19:43:01.422Z,24.27
2023-04-09T19:45:31.405Z,24.80
2023-04-09T19:48:01.570Z,23.98
2023-04-09T19:50:31.396Z,22.42
2023-04-09T19:53:01.266Z,23.17
2023-04-09T19:55:31.263Z,22.33
2023-04-09T19:58:03.692Z,22.70
2023-04-09T20:00:35.130Z,22.63
2023-04-09T20:03:07.155Z,23.92
2023-04-09T20:05:37.073Z,26.25
2023-04-09T20:08:12.244Z,25.75
2023-04-09T20:10:46.576Z,23.75
2023-04-09T20:13:18.879Z,26.75
2023-04-09T20:15:50.049Z,22.30
2023-04-09T20:18:19.682Z,21.88
2023-04-09T20:20:50.879Z,22.55
2023-04-09T20:23:20.590Z,20.70
2023-04-09T20:25:54.742Z,23.95
2023-04-09T20:28:27.870Z,23.00
2023-04-09T20:30:57.849Z,22.90
2023-04-09T20:33:27.698Z,22.42
2023-04-09T20:35:57.439Z,21.30
2023-04-09T20:38:27.218Z,21.02
2023-04-09T20:40:56.899Z,18.23
2023-04-09T20:43:29.119Z,20.95
2023-04-09T20:45:58.827Z,21.98
2023-04-09T20:48:28.601Z,20.80
2023-04-09T20:50:58.716Z,21.08
2023-04-09T20:53:28.817Z,21.52
2023-04-09T20:55:58.844Z,20.65
2023-04-09T20:58:31.210Z,22.60
2023-04-09T21:01:07.371Z,19.85
2023-04-09T21:03:37.390Z,18.48
2023-04-09T21:06:08.354Z,21.80
2023-04-09T21:08:38.671Z,19.02
2023-04-09T21:11:08.544Z,22.92
2023-04-09T21:13:53.824Z,19.42
2023-04-09T21:16:26.219Z,18.63
2023-04-09T21:18:56.188Z,19.65
2023-04-09T21:21:27.587Z,21.17
2023-04-09T21:23:57.282Z,21.95
2023-04-09T21:26:28.114Z,19.50
2023-04-09T21:29:02.518Z,20.92
2023-04-09T21:31:32.268Z,21.40
2023-04-09T21:34:01.925Z,22.27
2023-04-09T21:36:34.850Z,19.50
2023-04-09T21:39:04.571Z,22.83
2023-04-09T21:41:34.223Z,23.33
2023-04-09T21:44:08.749Z,22.73
2023-04-09T21:46:41.027Z,19.30
2023-04-09T21:49:11.245Z,20.73
2023-04-09T21:51:41.880Z,19.65
2023-04-09T21:54:12.483Z,16.63
2023-04-09T21:56:42.176Z,17.80
2023-04-09T21:59:14.400Z,19.35
2023-04-09T22:01:45.324Z,17.33
2023-04-09T22:04:15.786Z,19.30
2023-04-09T22:06:47.958Z,19.42
2023-04-09T22:09:17.817Z,19.35
2023-04-09T22:11:47.623Z,17.50
2023-04-09T22:14:20.097Z,21.17
2023-04-09T22:16:50.007Z,18.88
2023-04-09T22:19:19.624Z,18.38
2023-04-09T22:21:50.837Z,21.45
2023-04-09T22:24:26.886Z,20.98
2023-04-09T22:26:59.169Z,21.15
2023-04-09T22:29:32.096Z,17.75
2023-04-09T22:32:02.812Z,29.08
2023-04-09T22:34:32.585Z,27.55
2023-04-09T22:37:02.292Z,26.33
2023-04-09T22:39:32.136Z,24.35
2023-04-09T22:42:01.972Z,20.45
2023-04-09T22:44:34.238Z,18.77
2023-04-09T22:47:03.874Z,22.85
2023-04-09T22:49:33.589Z,19.95
2023-04-09T22:52:03.210Z,19.52
2023-04-09T22:54:32.931Z,21.17
2023-04-09T22:57:03.196Z,17.05
2023-04-09T23:02:08.197Z,14.95
2023-04-09T23:04:38.021Z,23.75
2023-04-09T23:07:08.056Z,18.77
2023-04-09T23:09:37.716Z,20.88
2023-04-09T23:12:07.371Z,22.17
2023-04-09T23:14:40.018Z,25.52
2023-04-09T23:17:09.927Z,22.27
2023-04-09T23:19:39.599Z,22.55
2023-04-09T23:22:09.444Z,21.88
2023-04-09T23:24:39.104Z,19.30
2023-04-09T23:27:08.751Z,21.40
2023-04-09T23:29:40.999Z,22.02
2023-04-09T23:32:10.795Z,24.92
2023-04-09T23:34:40.454Z,22.77
2023-04-09T23:37:10.454Z,21.45
2023-04-09T23:39:40.093Z,23.00
2023-04-09T23:42:09.734Z,24.92
2023-04-09T23:44:44.058Z,25.35
2023-04-09T23:47:13.939Z,25.95
2023-04-09T23:49:43.629Z,25.65
2023-04-09T23:52:13.313Z,24.23
2023-04-09T23:54:51.417Z,25.33
2023-04-09T23:57:21.158Z,27.50
2023-04-09T23:59:53.404Z,21.65
